Latest Weather Observations for Gove Airport

IDD60801

Issued at 1:35 pm CST Monday 21 April 2014 (issued every 30 minutes, with the page automatically refreshed every 10 minutes)

About weather observations | Map of weather stations | Latest weather observations for NT | Other Formats
Station Details ID: 014508 Name: GOVE AIRPORT Lat: -12.27 Lon: 136.82 Height: 51.6 m
Data from the previous 72 hours. | See also: Recent months at Gove Airport
Date/Time
CST
Temp
°C
App
Temp
°C
Dew
Point
Rel
Hum
%
Delta-T
°C
Wind Press
QNH
hPa
Press
MSL
hPa
Rain
since 9 am
mm
Dir
 
Spd
km/h
Gust
km/h
Spd
kts
Gust
kts
21/01:30pm 30.0 29.5 21.5 60 5.7 ESE 26 33 14 18 1009.7 - 0.2
21/01:00pm 30.6 30.2 21.7 59 6.0 E 26 35 14 19 1009.7 - 0.2
21/12:30pm 30.5 31.4 21.9 60 5.8 E 20 28 11 15 1009.9 - 0.2
21/12:00pm 30.3 29.4 21.5 59 5.9 E 28 41 15 22 1010.5 1010.1 0.2
21/11:30am 30.1 29.1 22.0 62 5.5 E 30 41 16 22 1011.0 - 0.2
21/11:00am 30.0 30.1 22.5 64 5.1 ESE 26 33 14 18 1011.4 - 0.2
21/10:30am 30.1 29.6 22.1 62 5.4 E 28 37 15 20 1011.8 - 0.0
21/10:00am 29.7 29.5 22.0 63 5.2 E 26 35 14 19 1011.5 - 0.0
21/09:30am 29.3 29.7 22.4 66 4.7 E 24 33 13 18 1011.5 - 0.0
21/09:00am 28.6 29.8 23.2 72 3.7 E 22 32 12 17 1011.2 1010.8 0.4
21/08:30am 27.9 28.9 22.9 74 3.4 E 22 30 12 16 1010.9 - 0.4
21/08:00am 27.7 29.5 23.3 77 3.0 E 19 28 10 15 1010.6 - 0.4
21/07:30am 26.9 29.5 23.9 83 2.1 E 17 24 9 13 1010.6 - 0.4
21/07:00am 26.2 29.0 24.3 89 1.3 E 17 22 9 12 1010.5 - 0.4
21/06:57am 26.1 29.0 24.4 90 1.2 E 17 28 9 15 1010.4 - 0.4
21/06:42am 27.4 28.4 22.2 73 3.5 ESE 20 26 11 14 1010.1 - 0.0
21/06:30am 27.2 28.1 22.0 73 3.5 ESE 20 28 11 15 1010.0 - 0.0
21/06:00am 27.1 28.5 21.9 73 3.5 ESE 17 22 9 12 1009.7 1009.3 0.0
21/05:30am 26.9 28.6 21.7 73 3.5 SE 15 19 8 10 1009.5 - 0.0
21/05:00am 26.5 28.2 21.6 74 3.3 SE 15 19 8 10 1009.4 - 0.0
21/04:30am 26.5 28.6 21.7 75 3.2 SE 13 17 7 9 1009.3 - 0.0
21/04:00am 26.6 28.3 21.7 74 3.3 SE 15 20 8 11 1009.3 - 0.0
21/03:30am 26.6 28.2 21.5 73 3.4 SE 15 19 8 10 1009.6 - 0.0
21/03:00am 26.7 28.2 21.3 72 3.6 SE 15 20 8 11 1009.4 1009.0 0.0
21/02:30am 26.6 28.1 21.3 72 3.5 SE 15 22 8 12 1009.3 - 0.0
21/02:00am 26.7 28.2 21.3 72 3.6 SE 15 22 8 12 1009.4 - 0.0
21/01:30am 26.8 28.2 21.1 71 3.8 SE 15 20 8 11 1009.6 - 0.0
21/01:00am 26.7 27.7 21.1 71 3.7 SE 17 22 9 12 1009.9 - 0.0
21/12:30am 27.0 28.0 21.0 69 4.0 SE 17 22 9 12 1010.3 - 0.0
21/12:00am 26.9 27.8 20.9 69 4.0 SE 17 24 9 13 1010.6 1010.2 0.0
 
Date/Time
CST
Temp
°C
App
Temp
°C
Dew
Point
Rel
Hum
%
Delta-T
°C
Wind Press
QNH
hPa
Press
MSL
hPa
Rain
since 9 am
mm
Dir
 
Spd
km/h
Gust
km/h
Spd
kts
Gust
kts
20/11:30pm 26.9 27.8 20.9 69 4.0 SE 17 22 9 12 1010.7 - 0.0
20/11:00pm 27.2 27.5 20.5 67 4.4 SE 19 26 10 14 1010.7 - 0.0
20/10:30pm 27.2 27.7 20.9 68 4.2 SE 19 28 10 15 1010.9 - 0.0
20/10:00pm 27.1 27.6 20.9 69 4.1 SE 19 26 10 14 1011.1 - 0.0
20/09:30pm 27.2 27.6 20.7 67 4.3 SE 19 26 10 14 1011.3 - 0.0
20/09:00pm 26.8 28.3 21.2 71 3.7 SE 15 22 8 12 1011.3 1010.9 0.0
20/08:30pm 26.7 28.6 21.4 72 3.5 SE 13 17 7 9 1011.2 - 0.0
20/08:00pm 26.6 28.7 21.7 74 3.3 SE 13 17 7 9 1010.9 - 0.0
20/07:30pm 26.8 29.0 21.9 74 3.3 SE 13 19 7 10 1010.6 - 0.0
20/07:00pm 26.8 29.0 21.9 74 3.3 ESE 13 19 7 10 1010.3 - 0.0
20/06:30pm 27.1 29.3 21.9 73 3.5 ESE 13 19 7 10 1010.1 - 0.0
20/06:00pm 27.6 29.0 21.8 70 3.9 ESE 17 20 9 11 1009.8 1009.4 0.0
20/05:30pm 28.0 29.6 22.1 70 4.0 ESE 17 24 9 13 1009.4 - 0.0
20/05:00pm 28.5 28.9 21.7 66 4.6 ESE 22 32 12 17 1009.2 - 0.0
20/04:30pm 29.4 29.5 21.8 63 5.1 ESE 24 30 13 16 1008.9 - 0.0
20/04:00pm 29.8 29.5 21.8 62 5.4 E 26 37 14 20 1008.6 - 0.0
20/03:30pm 30.0 29.2 21.7 61 5.6 E 28 35 15 19 1008.6 - 0.0
20/03:00pm 30.1 28.9 21.5 60 5.8 ESE 30 39 16 21 1008.5 1008.1 0.0
20/02:30pm 30.6 30.2 21.7 59 6.0 E 26 35 14 19 1008.8 - 0.0
20/02:00pm 30.3 29.8 21.4 59 6.0 E 26 39 14 21 1008.9 - 0.0
20/01:30pm 30.2 29.2 21.3 59 6.0 ESE 28 37 15 20 1009.2 - 0.0
20/01:05pm 30.6 29.4 20.9 56 6.5 ESE 28 46 15 25 1009.6 - 0.0
20/01:00pm 30.2 29.5 21.8 60 5.7 ESE 28 37 15 20 1009.7 - 0.0
20/12:30pm 30.4 28.8 21.5 59 6.0 ESE 32 41 17 22 1010.1 - 0.0
20/12:00pm 30.5 28.4 20.9 56 6.4 E 33 48 18 26 1010.4 1010.0 0.0
20/11:30am 30.3 28.8 21.0 57 6.2 E 30 41 16 22 1010.6 - 0.0
20/11:00am 30.1 27.5 20.6 56 6.3 E 35 41 19 22 1010.8 - 0.0
20/10:30am 30.4 29.3 21.8 60 5.8 E 30 41 16 22 1010.9 - 0.0
20/10:00am 30.1 28.9 21.5 60 5.8 E 30 39 16 21 1010.8 - 0.0
20/09:30am 29.3 27.2 20.6 59 5.8 ESE 32 43 17 23 1010.7 - 0.0
20/09:00am 29.5 28.8 21.8 63 5.2 ESE 28 39 15 21 1010.6 1010.2 8.0
20/08:30am 28.7 29.0 22.2 68 4.4 ESE 24 35 13 19 1010.6 - 8.0
20/08:00am 28.1 28.4 22.3 70 3.9 ESE 24 35 13 19 1010.2 - 8.0
20/07:30am 27.6 27.5 21.5 69 4.1 E 24 32 13 17 1010.0 - 8.0
20/07:00am 26.4 27.2 21.8 76 3.1 ESE 20 24 11 13 1009.8 - 8.0
20/06:30am 25.4 27.2 23.2 88 1.5 ESE 19 20 10 11 1009.5 - 8.0
20/06:00am 24.6 28.4 23.4 93 0.8 SE 9 11 5 6 1009.2 1008.8 8.0
20/05:30am 25.2 25.9 23.0 87 1.5 E 24 37 13 20 1008.9 - 8.0
20/05:23am 25.5 25.8 23.0 86 1.7 E 26 37 14 20 1008.9 - 6.6
20/05:00am 25.8 28.3 23.2 85 1.8 SE 15 24 8 13 1008.7 - 5.4
20/04:30am 26.0 28.2 22.6 81 2.3 SE 15 20 8 11 1008.3 - 5.4
20/04:00am 26.2 28.0 22.5 80 2.5 SE 17 20 9 11 1008.3 - 5.4
20/03:30am 25.4 28.5 22.9 86 1.7 SE 11 13 6 7 1008.5 - 5.4
20/03:00am 25.2 28.3 22.8 86 1.6 SE 11 15 6 8 1008.6 1008.2 5.4
20/02:30am 24.9 28.0 22.8 88 1.4 SSE 11 13 6 7 1008.6 - 5.4
20/02:00am 24.5 28.0 22.9 91 1.1 SSE 9 11 5 6 1009.0 - 5.4
20/01:30am 24.6 28.2 23.1 91 1.0 SE 9 9 5 5 1009.3 - 5.4
20/01:00am 25.0 28.7 23.2 90 1.2 SE 9 11 5 6 1009.7 - 5.4
20/12:30am 24.9 28.5 23.1 90 1.2 SE 9 13 5 7 1009.9 - 5.4
20/12:00am 24.9 28.5 23.1 90 1.2 SE 9 9 5 5 1010.0 1009.6 5.4
 
Date/Time
CST
Temp
°C
App
Temp
°C
Dew
Point
Rel
Hum
%
Delta-T
°C
Wind Press
QNH
hPa
Press
MSL
hPa
Rain
since 9 am
mm
Dir
 
Spd
km/h
Gust
km/h
Spd
kts
Gust
kts
19/11:30pm 25.1 28.5 23.3 90 1.2 SE 11 13 6 7 1010.2 - 5.4
19/11:00pm 25.0 28.8 23.4 91 1.1 SSE 9 13 5 7 1010.6 - 5.4
19/10:30pm 24.6 28.3 23.3 92 0.9 SSE 9 11 5 6 1010.8 - 5.4
19/10:00pm 24.1 28.7 23.2 95 0.6 SSE 4 6 2 3 1011.2 - 5.4
19/09:30pm 23.6 27.5 22.6 94 0.7 SSE 6 7 3 4 1011.3 - 5.4
19/09:00pm 23.3 27.0 22.3 94 0.7 ESE 6 7 3 4 1011.3 1010.9 5.2
19/08:30pm 22.8 25.0 21.9 95 0.6 ESE 13 20 7 11 1011.2 - 5.2
19/08:19pm 22.5 23.4 22.0 97 0.3 SSE 20 30 11 16 1011.3 - 4.8
19/08:09pm 26.8 30.3 23.6 82 2.2 SE 11 32 6 17 1011.2 - 0.0
19/08:00pm 26.7 30.5 23.5 82 2.2 SE 9 11 5 6 1010.9 - 0.0
19/07:30pm 26.6 30.0 23.4 82 2.2 SSE 11 13 6 7 1010.6 - 0.0
19/07:00pm 26.7 30.5 23.5 82 2.2 SE 9 13 5 7 1010.4 - 0.0
19/06:30pm 27.0 30.7 23.2 80 2.6 SE 9 11 5 6 1010.0 - 0.0
19/06:00pm 27.8 30.3 22.5 73 3.6 E 13 17 7 9 1009.5 1009.1 0.0
19/05:30pm 28.3 30.1 22.6 71 3.9 E 17 20 9 11 1009.3 - 0.0
19/05:00pm 28.7 30.5 22.5 69 4.2 E 17 24 9 13 1009.2 - 0.0
19/04:30pm 28.8 30.6 22.6 69 4.2 E 17 22 9 12 1009.0 - 0.0
19/04:00pm 28.6 30.6 22.9 71 3.9 E 17 22 9 12 1008.9 - 0.0
19/03:30pm 29.1 30.1 22.2 66 4.7 E 20 28 11 15 1008.9 - 0.0
19/03:00pm 29.5 30.7 22.5 66 4.8 E 20 32 11 17 1009.0 1008.6 0.0
19/02:30pm 30.0 29.8 22.0 62 5.4 E 26 33 14 18 1009.1 - 0.0
19/02:00pm 30.4 28.9 21.0 57 6.3 E 30 39 16 21 1009.2 - 0.0
19/01:30pm 30.4 29.1 21.3 58 6.1 E 30 39 16 21 1009.5 - 0.0
19/01:00pm 30.5 30.1 22.3 61 5.6 E 28 37 15 20 1009.8 - 0.0
19/12:30pm 31.4 32.3 23.3 62 5.6 E 24 35 13 19 1010.3 - 0.0
19/12:00pm 30.8 31.6 23.1 63 5.3 E 24 33 13 18 1010.7 1010.3 0.0
19/11:30am 29.7 30.4 23.0 67 4.6 ESE 24 32 13 17 1011.1 - 0.0
19/11:00am 29.4 30.1 22.3 65 4.8 ESE 22 37 12 20 1011.5 - 0.0
19/10:30am 29.4 29.3 22.2 65 4.9 E 26 37 14 20 1011.8 - 0.0
19/10:00am 29.7 31.3 23.9 71 4.0 ESE 22 32 12 17 1011.7 - 0.0
19/09:30am 27.7 26.7 21.2 67 4.3 SE 28 44 15 24 1011.7 - 0.0
19/09:00am 29.4 30.9 23.1 69 4.3 ESE 20 30 11 16 1011.5 1011.1 34.8
19/08:30am 27.8 29.5 23.1 75 3.2 E 19 26 10 14 1011.6 - 34.8
19/08:00am 26.9 28.8 22.8 78 2.8 ESE 17 20 9 11 1011.6 - 34.8
19/07:30am 26.4 28.3 22.7 80 2.5 ESE 17 20 9 11 1011.4 - 34.8
19/07:00am 25.7 29.0 23.8 89 1.3 SE 13 17 7 9 1011.0 - 34.8
19/06:30am 25.3 28.6 23.8 91 1.0 ESE 13 20 7 11 1010.6 - 34.8
19/06:00am 25.1 27.6 23.8 92 0.9 ESE 17 20 9 11 1010.2 1009.8 34.6
19/05:30am 25.1 27.6 23.8 92 0.9 ESE 17 32 9 17 1010.1 - 34.4
19/05:00am 24.5 27.2 23.5 94 0.7 E 15 19 8 10 1009.9 - 34.0
19/04:30am 24.0 26.4 23.0 94 0.7 SE 15 20 8 11 1009.9 - 33.8
19/04:00am 23.5 28.3 22.9 96 0.4 SE 2 9 1 5 1010.0 - 33.2
19/03:30am 23.6 27.9 22.6 94 0.7 ESE 4 9 2 5 1010.2 - 32.6
19/03:21am 23.6 27.5 22.6 94 0.7 SE 6 11 3 6 1010.4 - 32.4
19/03:00am 24.1 25.7 22.8 92 0.9 SE 19 26 10 14 1010.3 1009.9 32.0
19/02:55am 24.3 25.9 23.3 94 0.7 SE 20 26 11 14 1010.4 - 31.8
19/02:52am 24.7 29.0 24.3 98 0.3 E 9 32 5 17 1010.4 - 31.4
19/02:35am 24.4 29.2 24.1 98 0.2 E 6 9 3 5 1010.1 - 31.0
19/02:30am 24.3 29.0 24.0 98 0.2 ESE 6 9 3 5 1010.3 - 30.8
19/02:00am 24.0 28.5 23.7 98 0.2 SSE 6 7 3 4 1010.6 - 30.6
19/01:30am 23.9 28.8 23.6 98 0.2 S 4 7 2 4 1010.8 - 30.6
19/01:00am 23.8 28.2 23.5 98 0.2 S 6 9 3 5 1011.1 - 30.6
19/12:30am 23.9 28.1 23.5 98 0.3 S 7 11 4 6 1011.4 - 30.6
19/12:00am 23.9 27.7 23.5 98 0.3 S 9 17 5 9 1012.0 1011.6 30.6
 
Date/Time
CST
Temp
°C
App
Temp
°C
Dew
Point
Rel
Hum
%
Delta-T
°C
Wind Press
QNH
hPa
Press
MSL
hPa
Rain
since 9 am
mm
Dir
 
Spd
km/h
Gust
km/h
Spd
kts
Gust
kts
18/11:30pm 23.9 27.7 23.5 98 0.3 SSW 9 11 5 6 1012.5 - 30.4
18/11:00pm 23.7 27.8 23.3 98 0.3 SSW 7 9 4 5 1012.6 - 30.0
18/10:30pm 23.5 27.4 22.9 96 0.4 S 7 9 4 5 1012.6 - 29.6
18/10:11pm 23.5 27.5 23.1 98 0.3 S 7 11 4 6 1012.6 - 29.0
18/10:00pm 23.5 27.5 23.1 98 0.3 S 7 11 4 6 1012.7 - 28.6
18/09:44pm 23.6 27.7 23.2 98 0.3 S 7 9 4 5 1012.8 - 28.0
18/09:30pm 23.6 27.7 23.2 98 0.3 S 7 9 4 5 1012.7 - 27.6
18/09:00pm 23.7 28.8 23.3 98 0.3 S 2 6 1 3 1012.8 1012.4 27.6
18/08:30pm 23.7 28.0 23.3 98 0.3 S 6 9 3 5 1012.9 - 27.4
18/08:00pm 23.7 27.8 23.3 98 0.3 S 7 11 4 6 1012.7 - 26.6
18/07:30pm 23.6 26.9 23.2 98 0.3 S 11 17 6 9 1012.4 - 25.2
18/07:14pm 23.6 26.5 23.2 98 0.3 S 13 22 7 12 1012.2 - 24.6
18/07:00pm 23.5 26.8 23.2 98 0.2 S 11 17 6 9 1012.0 - 24.4
18/06:30pm 23.1 26.1 22.7 98 0.3 SSW 11 15 6 8 1011.3 - 24.2
18/06:00pm 23.2 26.5 22.5 96 0.5 SSW 9 13 5 7 1011.2 1010.8 23.8
18/05:30pm 24.1 28.7 23.8 98 0.2 SSW 6 15 3 8 1011.1 - 21.2
18/05:01pm 24.2 28.6 23.8 98 0.3 W 7 9 4 5 1010.6 - 19.6
18/04:55pm 24.2 28.6 23.8 98 0.3 WSW 7 11 4 6 1010.6 - 19.2
18/04:44pm 24.2 28.6 23.8 98 0.3 WSW 7 9 4 5 1010.4 - 18.4
18/04:30pm 24.1 28.6 23.7 98 0.3 SW 6 9 3 5 1010.4 - 17.8
18/04:23pm 24.1 29.8 23.7 98 0.3 CALM 0 0 0 0 1010.3 - 17.0
18/04:09pm 24.1 29.8 23.7 98 0.3 CALM 0 0 0 0 1010.1 - 15.8
18/04:00pm 24.0 29.6 23.6 98 0.3 CALM 0 0 0 0 1010.0 - 15.6
18/03:30pm 24.0 28.7 23.4 96 0.4 ENE 4 9 2 5 1010.1 - 14.6
18/03:00pm 24.1 26.6 23.1 94 0.7 N 15 24 8 13 1010.4 1010.0 12.6
18/02:41pm 25.1 29.2 24.5 96 0.4 N 11 20 6 11 1010.8 - 5.6
18/02:30pm 24.9 29.7 24.2 96 0.5 WSW 6 9 3 5 1010.2 - 5.6
18/02:00pm 24.9 29.8 24.3 96 0.4 SW 6 7 3 4 1010.3 - 5.4

Other Formats:

Comma delimited format used in spreadsheet applications
http://www.bom.gov.au/fwo/IDD60801/IDD60801.94150.axf

JavaScript Object Notation format (JSON) in row-major order
http://www.bom.gov.au/fwo/IDD60801/IDD60801.94150.json